createdAt,value
2022-08-28T00:02:16.823Z,10.90
2022-08-28T00:12:22.532Z,10.80
2022-08-28T00:22:28.480Z,11.40
2022-08-28T00:32:35.732Z,10.30
2022-08-28T00:42:41.432Z,10.10
2022-08-28T00:52:48.978Z,10.10
2022-08-28T01:02:54.971Z,11.40
2022-08-28T01:13:01.834Z,10.80
2022-08-28T01:23:17.011Z,10.40
2022-08-28T01:33:27.963Z,11.40
2022-08-28T01:43:34.168Z,8.90
2022-08-28T01:53:41.366Z,9.20
2022-08-28T02:03:47.348Z,8.60
2022-08-28T02:13:56.342Z,8.90
2022-08-28T02:24:02.194Z,8.50
2022-08-28T02:34:07.929Z,8.90
2022-08-28T02:44:13.746Z,8.30
2022-08-28T02:54:19.591Z,7.80
2022-08-28T03:04:25.157Z,8.50
2022-08-28T03:14:31.009Z,7.40
2022-08-28T03:24:37.619Z,7.50
2022-08-28T03:34:43.299Z,8.10
2022-08-28T03:44:49.705Z,7.80
2022-08-28T03:54:55.683Z,7.40
2022-08-28T04:05:01.286Z,8.00
2022-08-28T04:15:09.399Z,7.60
2022-08-28T04:25:15.581Z,5.80
2022-08-28T04:35:21.360Z,6.50
2022-08-28T04:45:27.185Z,6.00
2022-08-28T04:55:54.600Z,6.10
2022-08-28T05:05:58.577Z,5.50
2022-08-28T05:16:06.115Z,5.30
2022-08-28T05:26:16.158Z,5.60
2022-08-28T05:36:25.756Z,5.70
2022-08-28T05:46:32.841Z,5.00
2022-08-28T05:56:41.022Z,5.00
2022-08-28T06:06:49.462Z,5.30
2022-08-28T06:16:57.474Z,5.60
2022-08-28T06:27:03.400Z,6.60
2022-08-28T06:37:10.364Z,5.80
2022-08-28T06:47:16.323Z,6.30
2022-08-28T06:57:22.201Z,6.50
2022-08-28T07:07:32.631Z,5.70
2022-08-28T07:17:38.547Z,5.00
2022-08-28T07:27:44.253Z,5.30
2022-08-28T07:37:50.172Z,6.60
2022-08-28T07:47:55.885Z,5.70
2022-08-28T07:58:02.332Z,7.90
2022-08-28T08:08:08.268Z,6.80
2022-08-28T08:18:14.204Z,6.10
2022-08-28T08:28:21.105Z,6.70
2022-08-28T08:38:27.102Z,7.70
2022-08-28T08:48:36.182Z,7.20
2022-08-28T08:58:44.291Z,7.90
2022-08-28T09:08:56.325Z,8.90
2022-08-28T09:19:03.729Z,9.00
2022-08-28T09:29:17.142Z,8.60
2022-08-28T09:39:24.736Z,8.50
2022-08-28T09:49:31.823Z,7.40
2022-08-28T09:59:37.520Z,8.30
2022-08-28T10:20:02.474Z,8.10
2022-08-28T10:30:13.994Z,9.90
2022-08-28T10:40:25.549Z,9.90
2022-08-28T10:50:38.466Z,8.30
2022-08-28T11:00:44.881Z,7.40
2022-08-28T11:10:54.168Z,7.70
2022-08-28T11:21:08.959Z,7.70
2022-08-28T11:31:33.976Z,7.40
2022-08-28T11:41:41.540Z,6.60
2022-08-28T11:52:09.006Z,7.10
2022-08-28T12:02:46.640Z,8.00
2022-08-28T12:12:58.457Z,7.60
2022-08-28T12:23:25.175Z,10.40
2022-08-28T12:33:38.921Z,10.00
2022-08-28T12:43:48.367Z,9.60
2022-08-28T12:53:56.099Z,10.20
2022-08-28T13:04:05.429Z,9.80
2022-08-28T13:14:11.320Z,11.30
2022-08-28T13:24:40.290Z,10.00
2022-08-28T13:35:16.723Z,9.70
2022-08-28T13:45:22.474Z,10.90
2022-08-28T13:55:28.145Z,10.10
2022-08-28T14:05:34.476Z,11.30
2022-08-28T14:15:40.309Z,9.60
2022-08-28T14:25:47.834Z,9.10
2022-08-28T14:35:54.050Z,7.80
2022-08-28T14:46:00.684Z,9.00
2022-08-28T14:56:09.857Z,9.50
2022-08-28T15:06:15.858Z,10.60
2022-08-28T15:16:29.322Z,10.90
2022-08-28T15:26:37.866Z,13.20
2022-08-28T15:36:44.911Z,6.70
2022-08-28T15:47:03.141Z,5.90
2022-08-28T15:57:08.881Z,5.80
2022-08-28T16:07:14.558Z,7.00
2022-08-28T16:17:20.484Z,8.00
2022-08-28T16:27:26.490Z,6.30
2022-08-28T16:37:39.694Z,6.20
2022-08-28T16:47:45.901Z,4.60
2022-08-28T16:57:51.831Z,3.70
2022-08-28T17:07:57.651Z,4.10
2022-08-28T17:18:03.679Z,4.10
2022-08-28T17:28:11.020Z,3.60
2022-08-28T17:38:17.678Z,4.30
2022-08-28T17:48:23.854Z,5.20
2022-08-28T17:58:31.663Z,5.70
2022-08-28T18:08:40.716Z,6.10
2022-08-28T18:18:46.437Z,6.30
2022-08-28T18:28:52.724Z,6.70
2022-08-28T18:38:58.758Z,6.60
2022-08-28T18:49:04.972Z,6.30
2022-08-28T18:59:10.791Z,6.50
2022-08-28T19:09:17.901Z,6.50
2022-08-28T19:19:26.667Z,5.90
2022-08-28T19:29:32.938Z,6.10
2022-08-28T19:39:39.107Z,7.70
2022-08-28T19:49:44.981Z,7.00
2022-08-28T19:59:50.801Z,9.60
2022-08-28T20:09:57.139Z,10.80
2022-08-28T20:20:03.623Z,9.70
2022-08-28T20:30:11.966Z,10.00
2022-08-28T20:40:21.807Z,10.20
2022-08-28T20:50:27.713Z,10.60
2022-08-28T21:00:33.639Z,10.90
2022-08-28T21:10:40.735Z,10.50
2022-08-28T21:20:46.572Z,10.30
2022-08-28T21:30:54.088Z,11.50
2022-08-28T21:41:02.219Z,12.80
2022-08-28T21:51:11.067Z,10.60
2022-08-28T22:01:18.789Z,6.10
2022-08-28T22:11:26.803Z,7.10
2022-08-28T22:21:50.617Z,4.90
2022-08-28T22:31:56.351Z,5.40
2022-08-28T22:42:02.252Z,6.50
2022-08-28T22:52:10.156Z,5.80
2022-08-28T23:02:17.551Z,7.30
2022-08-28T23:12:23.385Z,7.70
2022-08-28T23:22:29.168Z,5.60
2022-08-28T23:32:35.050Z,6.00
2022-08-28T23:42:41.253Z,4.90
2022-08-28T23:52:47.298Z,4.70
